Time;durP1;ratioP1;P1;durP2;ratioP2;P2;SDS_P1;SDS_P2;PMS_P1;PMS_P2;Temp;Humidity;BMP_temperature;BMP_pressure;BME280_temperature;BME280_humidity;BME280_pressure;Samples;Min_cycle;Max_cycle;Signal;HPM_P1;HPM_P2
2021/06/17 00:01:34;;;;;;;6.85;3.83;;;26.40;51.20;;;;;;5045764;28;20122;-86
2021/06/17 00:04:00;;;;;;;4.35;3.95;;;26.30;51.70;;;;;;5044883;28;20115;-86
2021/06/17 00:06:26;;;;;;;5.43;4.28;;;26.20;51.70;;;;;;5048236;28;20067;-85
2021/06/17 00:08:51;;;;;;;4.50;3.22;;;26.20;51.90;;;;;;5047817;28;20518;-87
2021/06/17 00:11:17;;;;;;;6.13;4.35;;;26.20;52.60;;;;;;5048019;28;20492;-86
2021/06/17 00:13:42;;;;;;;5.35;3.90;;;26.10;52.10;;;;;;5046709;28;20037;-88
2021/06/17 00:16:08;;;;;;;4.35;3.95;;;26.10;52.20;;;;;;5028586;28;20044;-87
2021/06/17 00:18:34;;;;;;;4.15;3.47;;;26.10;52.30;;;;;;5046430;28;20364;-85
2021/06/17 00:21:03;;;;;;;4.43;3.08;;;26.10;52.40;;;;;;5048196;28;20040;-86
2021/06/17 00:23:30;;;;;;;4.97;3.70;;;26.00;52.40;;;;;;5045388;28;20047;-86
2021/06/17 00:25:56;;;;;;;5.57;3.60;;;26.00;52.50;;;;;;5029340;28;20037;-85
2021/06/17 00:28:22;;;;;;;5.18;3.58;;;26.00;52.60;;;;;;5030264;28;20027;-86
2021/06/17 00:30:47;;;;;;;4.40;3.60;;;26.00;52.70;;;;;;5047014;28;21141;-84
2021/06/17 00:33:13;;;;;;;4.93;4.15;;;26.00;52.70;;;;;;5045979;28;20021;-85
2021/06/17 00:35:39;;;;;;;4.55;3.95;;;26.00;52.90;;;;;;5047087;28;20109;-85
2021/06/17 00:38:05;;;;;;;4.75;3.88;;;26.00;52.90;;;;;;5046972;28;20121;-84
2021/06/17 00:40:32;;;;;;;5.30;4.35;;;25.90;53.10;;;;;;5045983;28;20086;-84
2021/06/17 00:42:59;;;;;;;6.80;4.35;;;25.90;53.10;;;;;;5028053;28;20014;-85
2021/06/17 00:45:29;;;;;;;4.68;3.47;;;25.90;53.90;;;;;;5026590;28;20523;-85
2021/06/17 00:47:55;;;;;;;4.80;3.80;;;25.90;53.20;;;;;;5047671;28;20031;-85
2021/06/17 00:50:23;;;;;;;4.32;3.63;;;25.90;53.10;;;;;;5045619;28;20029;-85
2021/06/17 00:52:49;;;;;;;3.15;2.85;;;25.90;53.10;;;;;;5045600;28;20017;-87
2021/06/17 00:55:15;;;;;;;3.53;2.80;;;25.90;53.00;;;;;;5028321;28;20112;-89
2021/06/17 00:57:41;;;;;;;3.42;3.13;;;25.90;52.90;;;;;;5029602;28;20113;-87
2021/06/17 01:00:09;;;;;;;3.83;3.10;;;25.90;53.10;;;;;;5045833;28;20032;-85
2021/06/17 01:02:35;;;;;;;3.75;3.15;;;25.80;53.10;;;;;;5043386;28;20434;-86
2021/06/17 01:05:01;;;;;;;4.07;3.45;;;25.80;53.20;;;;;;5047796;28;20086;-86
2021/06/17 01:07:39;;;;;;;4.75;3.40;;;25.80;53.40;;;;;;5031445;28;20620;-86
2021/06/17 01:10:18;;;;;;;3.88;2.92;;;25.80;53.40;;;;;;5043898;28;20607;-86
2021/06/17 01:13:04;;;;;;;3.47;2.97;;;25.80;53.40;;;;;;5046484;28;20051;-86
2021/06/17 01:15:35;;;;;;;2.55;2.30;;;25.80;53.40;;;;;;5046134;28;20135;-85
2021/06/17 01:18:14;;;;;;;3.65;3.13;;;25.80;53.40;;;;;;5045921;28;20484;-84
2021/06/17 01:20:52;;;;;;;3.47;2.55;;;25.70;53.40;;;;;;5026713;28;20045;-86
2021/06/17 01:23:52;;;;;;;4.32;3.13;;;25.70;53.50;;;;;;5027358;28;20555;-86
2021/06/17 01:27:00;;;;;;;2.95;2.70;;;25.70;53.60;;;;;;5044575;28;20029;-86
2021/06/17 01:29:28;;;;;;;4.57;3.83;;;25.70;53.70;;;;;;5045471;28;20033;-86
2021/06/17 01:31:55;;;;;;;4.32;3.30;;;25.60;54.50;;;;;;5045135;28;20033;-88
2021/06/17 01:34:22;;;;;;;3.45;2.80;;;25.60;53.90;;;;;;5046537;28;20017;-86
2021/06/17 01:36:57;;;;;;;4.60;2.90;;;25.60;53.90;;;;;;5047913;28;20047;-86
2021/06/17 01:39:24;;;;;;;4.45;3.90;;;25.60;54.00;;;;;;5046090;28;20479;-85
2021/06/17 01:41:52;;;;;;;5.63;4.07;;;25.60;54.30;;;;;;5047008;28;20103;-85
2021/06/17 01:44:21;;;;;;;5.00;3.67;;;25.60;54.50;;;;;;5047471;28;20036;-86
2021/06/17 01:46:48;;;;;;;5.03;3.88;;;25.60;54.60;;;;;;5051821;28;20033;-85
2021/06/17 01:49:17;;;;;;;6.57;4.57;;;25.50;54.70;;;;;;5049012;28;20033;-84
2021/06/17 01:51:44;;;;;;;7.18;5.35;;;25.50;54.90;;;;;;5031408;28;20037;-85
2021/06/17 01:54:20;;;;;;;5.28;4.30;;;25.40;55.10;;;;;;5049848;28;20025;-85
2021/06/17 01:56:48;;;;;;;7.05;4.90;;;25.40;55.20;;;;;;5048366;28;20084;-86
2021/06/17 01:59:14;;;;;;;5.57;4.53;;;25.40;55.50;;;;;;5048508;28;20041;-86
2021/06/17 02:01:40;;;;;;;6.10;5.47;;;25.40;55.70;;;;;;5028408;28;20071;-85
2021/06/17 02:04:06;;;;;;;5.07;4.50;;;25.30;55.70;;;;;;5048537;28;20033;-86
2021/06/17 02:06:34;;;;;;;6.35;5.45;;;25.30;55.70;;;;;;5030134;28;20107;-85
2021/06/17 02:09:01;;;;;;;7.32;5.30;;;25.30;55.90;;;;;;5046963;28;20014;-86
2021/06/17 02:11:28;;;;;;;6.68;5.70;;;25.30;56.00;;;;;;5047193;28;20021;-85
2021/06/17 02:13:56;;;;;;;5.78;5.15;;;25.20;56.20;;;;;;5032395;28;20510;-85
2021/06/17 02:16:22;;;;;;;6.47;5.20;;;25.20;56.30;;;;;;5043616;28;20124;-85
2021/06/17 02:18:49;;;;;;;6.10;4.53;;;25.20;56.60;;;;;;5049014;28;20032;-85
2021/06/17 02:21:15;;;;;;;6.63;4.82;;;25.10;56.60;;;;;;5043480;28;20522;-84
2021/06/17 02:23:47;;;;;;;6.35;5.38;;;25.20;56.50;;;;;;5048257;28;20078;-84
2021/06/17 02:26:12;;;;;;;5.70;5.20;;;25.20;56.70;;;;;;5032295;28;20503;-84
2021/06/17 02:28:42;;;;;;;5.65;4.70;;;25.20;56.50;;;;;;5047265;28;20052;-84
2021/06/17 02:31:10;;;;;;;5.53;3.78;;;25.20;56.50;;;;;;5030373;28;20353;-85
2021/06/17 02:33:37;;;;;;;5.63;5.13;;;25.20;56.40;;;;;;5050573;28;20043;-86
2021/06/17 02:36:04;;;;;;;6.45;4.88;;;25.20;56.50;;;;;;5051872;28;20024;-85
2021/06/17 02:38:34;;;;;;;7.60;5.53;;;25.10;56.40;;;;;;5046187;28;20411;-86
2021/06/17 02:41:03;;;;;;;7.88;6.25;;;25.10;56.60;;;;;;5047244;28;20037;-85
2021/06/17 02:43:33;;;;;;;5.65;4.60;;;25.10;56.70;;;;;;5027919;28;20025;-85
2021/06/17 02:45:59;;;;;;;7.32;5.38;;;25.10;56.70;;;;;;5029513;28;20029;-86
2021/06/17 02:48:25;;;;;;;5.78;4.20;;;25.10;56.70;;;;;;5050246;28;20032;-86
2021/06/17 02:50:51;;;;;;;6.47;4.93;;;25.10;56.60;;;;;;5050260;28;20044;-86
2021/06/17 02:53:16;;;;;;;6.88;5.57;;;25.10;56.70;;;;;;5045682;28;20033;-86
2021/06/17 02:55:42;;;;;;;6.20;5.45;;;25.10;56.80;;;;;;5049043;28;20083;-86
2021/06/17 02:58:29;;;;;;;3.88;3.50;;;25.10;56.80;;;;;;5050293;28;20482;-86
2021/06/17 03:01:20;;;;;;;5.03;4.30;;;25.00;56.80;;;;;;5028830;28;20045;-86
2021/06/17 03:03:55;;;;;;;6.18;5.30;;;24.90;57.00;;;;;;5027208;28;20415;-86
2021/06/17 03:06:35;;;;;;;7.60;6.63;;;24.90;57.30;;;;;;5047176;28;20078;-87
2021/06/17 03:09:04;;;;;;;6.97;6.13;;;24.80;57.70;;;;;;5049046;28;20541;-87
2021/06/17 03:11:36;;;;;;;6.53;5.93;;;24.80;57.80;;;;;;5049961;28;20076;-86
2021/06/17 03:14:08;;;;;;;10.02;6.40;;;24.70;58.00;;;;;;5048224;28;20033;-87
2021/06/17 03:16:37;;;;;;;8.80;6.53;;;24.60;58.20;;;;;;5048079;28;20031;-86
2021/06/17 03:19:04;;;;;;;7.90;7.10;;;24.60;58.40;;;;;;5050707;28;20190;-87
2021/06/17 03:21:37;;;;;;;9.10;6.90;;;24.60;58.60;;;;;;5048993;28;20041;-87
2021/06/17 03:24:05;;;;;;;7.05;5.72;;;24.60;59.30;;;;;;5045340;28;20464;-87
2021/06/17 03:26:32;;;;;;;5.88;5.28;;;24.50;58.80;;;;;;5046277;28;20033;-86
2021/06/17 03:28:58;;;;;;;7.30;6.15;;;24.50;58.70;;;;;;5047897;28;20086;-87
2021/06/17 03:31:27;;;;;;;5.18;4.53;;;24.60;59.30;;;;;;5049143;28;20383;-87
2021/06/17 03:33:54;;;;;;;8.85;6.43;;;24.50;58.40;;;;;;5045874;28;20036;-87
2021/06/17 03:36:21;;;;;;;7.18;6.22;;;24.60;58.40;;;;;;5047907;28;20391;-86
2021/06/17 03:38:48;;;;;;;5.35;4.85;;;24.60;58.40;;;;;;5048329;28;20028;-86
2021/06/17 03:41:14;;;;;;;7.90;7.00;;;24.60;58.30;;;;;;5049349;28;20037;-86
2021/06/17 03:43:41;;;;;;;4.85;4.35;;;24.50;58.60;;;;;;5026059;28;20025;-86
2021/06/17 03:46:10;;;;;;;5.95;5.18;;;24.50;58.40;;;;;;5048265;28;20025;-86
2021/06/17 03:48:40;;;;;;;6.22;5.53;;;24.50;58.50;;;;;;5047999;28;20028;-87
2021/06/17 03:51:06;;;;;;;7.25;5.72;;;24.50;58.70;;;;;;5030925;28;20025;-87
2021/06/17 03:53:32;;;;;;;8.13;7.30;;;24.40;58.90;;;;;;5047464;28;20021;-88
2021/06/17 03:55:58;;;;;;;9.00;7.72;;;24.40;59.70;;;;;;5031348;28;20021;-90
2021/06/17 03:58:25;;;;;;;6.07;5.47;;;24.30;59.40;;;;;;5050163;28;20029;-90
2021/06/17 04:00:54;;;;;;;7.65;5.82;;;24.40;59.20;;;;;;5049107;28;20300;-89
2021/06/17 04:03:21;;;;;;;5.95;5.32;;;24.30;59.30;;;;;;5031041;28;20021;-89
2021/06/17 04:05:47;;;;;;;6.05;5.35;;;24.40;59.10;;;;;;5029814;28;20536;-90
2021/06/17 04:08:14;;;;;;;5.53;5.03;;;24.40;59.10;;;;;;5029112;28;20025;-88
2021/06/17 04:10:41;;;;;;;8.20;6.47;;;24.40;59.00;;;;;;5048534;28;20033;-88
2021/06/17 04:13:09;;;;;;;8.48;5.68;;;24.40;59.20;;;;;;5044921;28;20029;-88
2021/06/17 04:15:36;;;;;;;4.65;4.18;;;24.40;59.30;;;;;;5042083;28;20025;-87
2021/06/17 04:18:03;;;;;;;6.93;5.45;;;24.30;59.20;;;;;;5044966;28;20533;-88
2021/06/17 04:20:41;;;;;;;6.85;6.15;;;24.30;59.10;;;;;;5044790;28;20487;-88
2021/06/17 04:23:07;;;;;;;8.18;6.05;;;24.30;59.30;;;;;;5048012;28;20095;-87
2021/06/17 04:25:34;;;;;;;7.57;6.70;;;24.30;59.60;;;;;;5044411;28;20555;-87
2021/06/17 04:28:02;;;;;;;9.07;6.63;;;24.20;59.90;;;;;;5044044;28;20083;-85
2021/06/17 04:30:29;;;;;;;5.38;4.88;;;24.20;59.90;;;;;;5045810;28;20057;-86
2021/06/17 04:32:57;;;;;;;4.63;4.07;;;24.30;59.70;;;;;;5039200;28;20032;-87
2021/06/17 04:35:24;;;;;;;8.18;7.38;;;24.30;59.40;;;;;;5058285;28;20116;-86
2021/06/17 04:37:51;;;;;;;7.20;6.50;;;24.30;59.60;;;;;;5045136;28;20442;-84
2021/06/17 04:40:19;;;;;;;6.18;5.57;;;24.30;59.70;;;;;;5046439;28;20033;-85
2021/06/17 04:42:44;;;;;;;6.78;6.07;;;24.30;59.70;;;;;;5045516;28;20072;-86
2021/06/17 04:45:11;;;;;;;8.40;7.50;;;24.30;60.10;;;;;;5041991;28;20025;-86
2021/06/17 04:47:38;;;;;;;10.70;8.00;;;24.20;60.30;;;;;;5042197;28;20032;-87
2021/06/17 04:50:08;;;;;;;6.00;5.20;;;24.10;60.50;;;;;;5051262;28;20029;-86
2021/06/17 04:52:36;;;;;;;11.77;9.80;;;24.20;60.10;;;;;;5044431;28;20021;-84
2021/06/17 04:55:04;;;;;;;7.90;6.57;;;24.20;60.60;;;;;;5040229;28;20068;-86
2021/06/17 04:57:29;;;;;;;8.43;7.32;;;24.30;60.50;;;;;;5046074;28;20068;-87
2021/06/17 04:59:55;;;;;;;6.35;5.75;;;24.60;59.90;;;;;;5042855;28;20501;-87
2021/06/17 05:02:21;;;;;;;7.50;5.70;;;25.00;59.00;;;;;;5045272;28;20116;-86
2021/06/17 05:04:46;;;;;;;6.95;6.07;;;25.30;58.20;;;;;;5044130;28;20407;-88
2021/06/17 05:12:25;;;;;;;9.07;7.43;;;26.10;56.30;;;;;;5046571;28;20031;-87
2021/06/17 05:14:50;;;;;;;7.85;5.53;;;26.30;55.90;;;;;;5038386;28;20028;-88
2021/06/17 05:17:16;;;;;;;8.18;7.38;;;26.50;55.60;;;;;;5042055;28;20067;-89
2021/06/17 05:19:42;;;;;;;8.13;5.85;;;26.60;55.50;;;;;;5045649;28;20033;-88
2021/06/17 05:22:11;;;;;;;7.97;6.20;;;26.80;55.30;;;;;;5048065;28;20500;-88
2021/06/17 05:24:38;;;;;;;6.80;5.75;;;27.00;54.90;;;;;;5044661;28;20089;-89
2021/06/17 05:27:05;;;;;;;6.85;6.15;;;27.10;54.80;;;;;;5042494;28;20017;-87
2021/06/17 05:29:31;;;;;;;6.70;5.47;;;27.10;54.70;;;;;;5047166;28;20033;-88
2021/06/17 05:31:57;;;;;;;6.43;5.78;;;27.10;54.80;;;;;;5041297;28;20063;-86
2021/06/17 05:34:22;;;;;;;5.75;5.03;;;27.30;54.30;;;;;;5050846;28;20028;-87
2021/06/17 05:36:48;;;;;;;8.00;6.55;;;27.30;54.20;;;;;;5043641;28;20399;-86
2021/06/17 05:39:14;;;;;;;10.40;7.28;;;27.30;53.90;;;;;;5050181;28;20536;-89
2021/06/17 05:41:40;;;;;;;6.60;4.90;;;27.30;54.10;;;;;;5049169;28;20470;-89
2021/06/17 05:44:05;;;;;;;6.47;5.05;;;27.40;54.10;;;;;;5047768;28;20049;-90
2021/06/17 05:46:37;;;;;;;6.80;5.53;;;27.40;53.80;;;;;;5043099;28;20199;-91
2021/06/17 05:49:02;;;;;;;5.80;4.30;;;27.30;53.80;;;;;;5044635;28;20396;-89
2021/06/17 05:51:28;;;;;;;5.55;4.53;;;27.40;53.70;;;;;;5047141;28;20025;-88
2021/06/17 05:53:53;;;;;;;7.30;5.75;;;27.40;53.50;;;;;;5047415;28;20136;-88
2021/06/17 05:56:19;;;;;;;4.95;3.63;;;27.30;53.50;;;;;;5049656;28;20108;-87
2021/06/17 05:58:47;;;;;;;5.18;4.68;;;27.30;54.20;;;;;;5046243;28;20029;-88
2021/06/17 06:01:12;;;;;;;5.82;5.00;;;27.30;53.50;;;;;;5039920;28;20411;-86
2021/06/17 06:03:38;;;;;;;4.45;4.00;;;27.30;53.60;;;;;;5046414;28;20041;-86
2021/06/17 06:06:03;;;;;;;5.90;5.05;;;27.40;53.60;;;;;;5047585;28;20426;-90
2021/06/17 06:08:29;;;;;;;6.05;4.70;;;27.40;53.60;;;;;;5057712;28;20013;-90
2021/06/17 06:10:55;;;;;;;5.63;3.85;;;27.40;53.50;;;;;;5059539;28;20032;-91
2021/06/17 06:13:20;;;;;;;5.50;3.83;;;27.50;53.30;;;;;;5051427;28;20526;-92
2021/06/17 06:15:46;;;;;;;3.38;3.08;;;27.60;52.80;;;;;;5052450;28;20033;-87
2021/06/17 06:18:15;;;;;;;4.75;3.92;;;27.70;52.70;;;;;;5049954;28;20044;-89
2021/06/17 06:20:46;;;;;;;5.15;4.57;;;27.80;52.30;;;;;;5055346;28;20037;-87
2021/06/17 06:23:13;;;;;;;4.03;3.30;;;27.90;52.10;;;;;;5053886;28;20530;-88
2021/06/17 06:25:44;;;;;;;5.15;4.13;;;28.00;51.90;;;;;;5050726;28;20048;-90
2021/06/17 06:28:10;;;;;;;4.50;3.35;;;28.10;51.70;;;;;;5049651;28;20053;-89
2021/06/17 06:30:36;;;;;;;7.80;4.60;;;28.30;51.70;;;;;;5048336;28;20116;-88
2021/06/17 06:33:01;;;;;;;4.13;2.92;;;28.50;51.20;;;;;;5051751;28;20029;-87
2021/06/17 06:35:27;;;;;;;6.45;3.97;;;28.60;51.20;;;;;;5049797;28;20029;-87
2021/06/17 06:37:53;;;;;;;5.90;3.75;;;28.70;50.80;;;;;;5049936;28;20025;-87
2021/06/17 06:40:23;;;;;;;5.68;4.30;;;28.90;50.50;;;;;;5050404;28;20033;-88
2021/06/17 06:42:49;;;;;;;6.43;3.85;;;28.90;50.20;;;;;;5051287;28;20041;-90
2021/06/17 06:45:15;;;;;;;3.80;3.40;;;29.00;50.20;;;;;;5054311;28;20035;-87
2021/06/17 06:47:41;;;;;;;3.20;2.90;;;29.20;49.90;;;;;;5052403;28;20071;-89
2021/06/17 06:50:08;;;;;;;4.22;3.17;;;29.30;49.80;;;;;;5056315;28;20021;-90
2021/06/17 06:52:33;;;;;;;4.78;2.80;;;29.40;49.70;;;;;;5053008;28;20078;-89
2021/06/17 06:54:59;;;;;;;4.28;3.63;;;29.60;49.40;;;;;;5050795;28;20444;-90
2021/06/17 06:57:29;;;;;;;4.47;4.05;;;29.70;49.30;;;;;;5050403;28;20092;-88
2021/06/17 06:59:55;;;;;;;5.38;3.70;;;29.90;49.00;;;;;;5043499;28;20353;-89
2021/06/17 07:02:21;;;;;;;4.10;3.45;;;30.00;48.60;;;;;;5047444;28;20027;-90
2021/06/17 07:04:46;;;;;;;4.30;3.70;;;30.10;48.30;;;;;;5050106;28;20033;-91
2021/06/17 07:07:12;;;;;;;3.40;2.75;;;30.00;48.10;;;;;;5050979;28;20025;-89
2021/06/17 07:09:38;;;;;;;5.22;4.05;;;30.00;48.30;;;;;;5052239;28;20040;-90
2021/06/17 07:12:04;;;;;;;4.97;3.70;;;29.90;47.90;;;;;;5051944;28;20025;-92
2021/06/17 07:14:31;;;;;;;3.67;3.15;;;29.80;48.50;;;;;;5049305;28;20036;-94
2021/06/17 07:16:56;;;;;;;3.42;2.97;;;29.80;48.50;;;;;;5047058;28;20029;-94
2021/06/17 07:19:22;;;;;;;6.30;3.75;;;29.80;48.30;;;;;;5053796;28;20039;-91
2021/06/17 07:21:48;;;;;;;5.18;3.88;;;29.60;48.20;;;;;;5034104;28;20379;-92
2021/06/17 07:24:15;;;;;;;4.20;3.15;;;29.40;48.40;;;;;;5052241;28;20537;-91
2021/06/17 07:26:41;;;;;;;5.53;4.15;;;29.30;48.70;;;;;;5050150;28;20039;-90
2021/06/17 07:29:07;;;;;;;7.07;3.50;;;29.10;48.70;;;;;;5029335;28;20029;-90
2021/06/17 07:31:33;;;;;;;5.13;2.90;;;28.90;49.20;;;;;;5030311;28;20045;-90
2021/06/17 07:33:59;;;;;;;4.32;3.50;;;28.90;49.70;;;;;;5047728;28;20025;-91
2021/06/17 07:36:25;;;;;;;4.65;3.30;;;28.90;49.80;;;;;;5048495;28;20085;-90
2021/06/17 07:38:51;;;;;;;5.40;3.22;;;29.00;49.90;;;;;;5047109;28;20361;-89
2021/06/17 07:41:16;;;;;;;5.18;3.40;;;29.00;49.90;;;;;;5048335;28;20071;-89
2021/06/17 07:43:42;;;;;;;3.20;2.90;;;29.10;49.80;;;;;;5047799;28;20031;-89
2021/06/17 07:46:08;;;;;;;4.53;3.25;;;29.30;49.40;;;;;;5046177;28;20087;-89
2021/06/17 07:48:36;;;;;;;4.90;3.30;;;29.50;48.70;;;;;;5049438;28;20100;-90
2021/06/17 07:51:01;;;;;;;8.13;4.22;;;29.70;48.10;;;;;;5043015;28;20611;-91
2021/06/17 07:53:27;;;;;;;4.22;3.08;;;29.80;47.70;;;;;;5048763;28;20032;-90
2021/06/17 07:55:52;;;;;;;4.07;2.67;;;29.90;47.60;;;;;;5048070;28;20029;-88
2021/06/17 07:58:18;;;;;;;4.40;2.70;;;30.00;47.50;;;;;;5049248;28;20043;-90
2021/06/17 08:00:43;;;;;;;2.97;2.35;;;30.10;47.60;;;;;;5043985;28;20033;-87
2021/06/17 08:03:09;;;;;;;4.38;2.50;;;30.30;47.40;;;;;;5028781;28;20021;-88
2021/06/17 08:05:35;;;;;;;5.32;2.50;;;30.50;47.30;;;;;;5045368;28;20028;-87
2021/06/17 08:08:01;;;;;;;3.88;3.28;;;30.70;46.80;;;;;;5043560;28;20075;-87
2021/06/17 08:10:27;;;;;;;5.45;3.60;;;30.80;45.50;;;;;;5043852;28;20024;-86
2021/06/17 08:12:52;;;;;;;4.80;3.05;;;30.70;44.80;;;;;;5022821;28;20091;-88
2021/06/17 08:15:19;;;;;;;4.53;2.78;;;30.70;44.50;;;;;;5031908;28;20021;-87
2021/06/17 08:17:45;;;;;;;3.15;2.40;;;30.60;44.40;;;;;;5045182;28;20025;-87
2021/06/17 08:20:12;;;;;;;6.13;2.70;;;30.80;44.30;;;;;;5042985;28;20452;-86
2021/06/17 08:22:39;;;;;;;3.67;2.60;;;30.90;44.10;;;;;;5044451;28;20090;-87
2021/06/17 08:25:06;;;;;;;2.83;2.53;;;31.00;43.90;;;;;;5044944;28;20035;-87
2021/06/17 08:27:32;;;;;;;2.50;2.22;;;31.10;43.90;;;;;;5043871;28;20044;-85
2021/06/17 08:29:58;;;;;;;4.07;2.60;;;31.30;43.80;;;;;;5043395;28;20100;-86
2021/06/17 08:32:23;;;;;;;3.92;2.75;;;31.30;43.70;;;;;;5045008;28;20040;-87
2021/06/17 08:34:49;;;;;;;2.88;2.17;;;31.40;43.60;;;;;;5044902;28;20059;-86
2021/06/17 08:37:14;;;;;;;4.63;2.63;;;31.40;43.60;;;;;;5045837;28;20028;-86
2021/06/17 08:39:40;;;;;;;2.20;2.00;;;31.50;43.70;;;;;;5043251;28;20033;-86
2021/06/17 08:42:06;;;;;;;5.63;3.17;;;31.70;43.80;;;;;;5047092;28;20436;-88
2021/06/17 08:44:32;;;;;;;4.25;3.20;;;31.70;43.10;;;;;;5043106;28;20029;-88
2021/06/17 08:46:58;;;;;;;3.88;2.75;;;31.70;43.10;;;;;;5044661;28;20115;-87
2021/06/17 08:49:26;;;;;;;3.90;2.60;;;31.60;43.40;;;;;;5046622;28;20490;-88
2021/06/17 08:51:52;;;;;;;2.67;2.40;;;31.60;43.00;;;;;;5044883;28;20025;-87
2021/06/17 08:54:21;;;;;;;4.75;2.85;;;31.60;43.00;;;;;;5047370;28;20024;-87
2021/06/17 08:56:47;;;;;;;5.00;3.17;;;31.70;43.00;;;;;;5051018;28;20093;-87
2021/06/17 08:59:14;;;;;;;3.03;2.72;;;31.60;42.60;;;;;;5049229;28;21185;-87
2021/06/17 09:01:41;;;;;;;2.90;2.15;;;31.50;42.60;;;;;;5050134;28;20037;-87
2021/06/17 09:04:20;;;;;;;2.50;2.03;;;31.50;42.80;;;;;;5048820;28;20108;-86
2021/06/17 09:07:03;;;;;;;3.03;2.00;;;31.50;42.90;;;;;;5049890;28;20106;-86
2021/06/17 09:09:38;;;;;;;2.60;1.98;;;31.80;42.90;;;;;;5043539;28;20030;-86
2021/06/17 09:12:05;;;;;;;2.30;1.88;;;32.00;42.90;;;;;;5043510;28;20613;-86
2021/06/17 09:14:30;;;;;;;2.50;2.03;;;32.10;42.70;;;;;;5048470;28;20051;-86
2021/06/17 09:16:59;;;;;;;3.40;2.90;;;32.30;42.50;;;;;;5043692;28;20025;-86
2021/06/17 09:19:34;;;;;;;2.85;2.20;;;32.30;42.00;;;;;;5026620;28;20029;-85
2021/06/17 09:22:00;;;;;;;4.07;2.10;;;32.20;42.30;;;;;;5042093;28;20563;-88
2021/06/17 09:24:34;;;;;;;3.40;2.20;;;32.20;42.20;;;;;;5047553;28;20029;-86
2021/06/17 09:27:22;;;;;;;3.25;2.00;;;32.10;42.40;;;;;;5024454;28;20021;-84
2021/06/17 09:29:49;;;;;;;2.40;1.90;;;32.20;42.50;;;;;;5027193;28;20029;-86
2021/06/17 09:32:20;;;;;;;2.92;1.90;;;32.30;42.40;;;;;;5042774;28;20037;-87
2021/06/17 09:34:46;;;;;;;4.40;2.70;;;32.40;42.20;;;;;;5044132;28;20030;-87
2021/06/17 09:37:58;;;;;;;2.90;2.25;;;32.50;41.50;;;;;;5042206;28;20041;-87
2021/06/17 09:40:29;;;;;;;5.25;2.80;;;32.50;41.60;;;;;;4967357;28;20162;-87
2021/06/17 09:43:34;;;;;;;3.05;2.20;;;32.50;41.30;;;;;;4967198;28;20038;-88
2021/06/17 09:46:09;;;;;;;4.80;2.63;;;32.50;41.10;;;;;;4946897;28;20039;-85
2021/06/17 09:48:39;;;;;;;2.97;2.05;;;32.50;40.90;;;;;;5035389;28;20032;-85
2021/06/17 09:51:26;;;;;;;3.53;2.03;;;32.60;41.00;;;;;;5044925;28;20025;-87
2021/06/17 09:53:54;;;;;;;2.88;2.13;;;32.80;41.00;;;;;;5024795;28;20511;-88
2021/06/17 09:56:31;;;;;;;2.95;2.65;;;32.90;41.10;;;;;;5047057;28;20082;-87
2021/06/17 09:58:57;;;;;;;3.33;2.10;;;32.90;41.00;;;;;;5040745;28;20032;-85
2021/06/17 10:01:45;;;;;;;3.90;2.55;;;32.80;41.10;;;;;;5044171;28;20395;-85
2021/06/17 10:04:16;;;;;;;2.97;2.30;;;32.70;41.50;;;;;;5046469;28;20025;-86
2021/06/17 10:06:43;;;;;;;4.50;2.60;;;32.70;41.30;;;;;;5045680;28;20044;-86
2021/06/17 10:09:13;;;;;;;3.15;1.95;;;32.60;41.10;;;;;;5028584;28;20423;-84
2021/06/17 10:11:41;;;;;;;3.60;2.47;;;32.70;41.40;;;;;;5045680;28;20044;-85
2021/06/17 10:14:07;;;;;;;5.05;2.50;;;32.80;41.30;;;;;;5046881;28;20473;-87
2021/06/17 10:16:34;;;;;;;2.88;2.17;;;32.90;40.60;;;;;;5047568;28;20360;-87
2021/06/17 10:19:00;;;;;;;3.05;2.50;;;33.00;40.80;;;;;;5054295;28;20037;-88
2021/06/17 10:21:27;;;;;;;3.15;2.42;;;33.00;40.00;;;;;;5049337;28;20051;-88
2021/06/17 10:23:53;;;;;;;4.28;2.67;;;32.90;40.30;;;;;;5047593;28;20035;-87
2021/06/17 10:26:21;;;;;;;3.63;2.42;;;32.90;40.50;;;;;;5043838;28;20025;-87
2021/06/17 10:28:55;;;;;;;3.95;2.58;;;32.90;40.90;;;;;;5046830;28;20461;-87
2021/06/17 10:31:36;;;;;;;4.15;3.25;;;32.90;41.10;;;;;;5047178;28;20120;-88
2021/06/17 10:34:38;;;;;;;7.63;3.60;;;32.80;41.50;;;;;;5045571;28;20077;-88
2021/06/17 10:37:19;;;;;;;3.83;2.85;;;32.80;41.60;;;;;;5010808;28;20033;-87
2021/06/17 10:40:10;;;;;;;6.03;3.08;;;32.70;41.90;;;;;;5025412;28;20040;-87
2021/06/17 10:42:49;;;;;;;4.10;3.35;;;32.90;41.80;;;;;;5046684;28;20496;-87
2021/06/17 10:45:34;;;;;;;4.22;3.42;;;32.90;41.50;;;;;;5031669;28;20116;-87
2021/06/17 10:48:05;;;;;;;4.03;3.10;;;33.10;41.50;;;;;;5044691;28;20021;-87
2021/06/17 10:50:45;;;;;;;6.00;3.60;;;33.20;41.40;;;;;;5028863;28;20078;-86
2021/06/17 10:53:23;;;;;;;4.53;2.92;;;33.20;41.50;;;;;;5047801;28;20032;-88
2021/06/17 10:56:02;;;;;;;5.30;3.60;;;33.30;41.60;;;;;;5026169;28;20601;-87
2021/06/17 10:58:45;;;;;;;4.68;2.97;;;33.20;41.70;;;;;;5029641;28;20033;-87
2021/06/17 11:01:34;;;;;;;4.10;3.10;;;33.40;41.90;;;;;;5047521;28;20086;-87
2021/06/17 11:04:02;;;;;;;5.45;3.03;;;33.60;41.10;;;;;;5040954;28;20056;-87
2021/06/17 11:06:54;;;;;;;4.72;3.08;;;33.60;40.90;;;;;;5019366;28;20095;-86
2021/06/17 11:09:35;;;;;;;3.15;2.40;;;33.60;40.70;;;;;;5027600;28;20125;-86
2021/06/17 11:12:13;;;;;;;2.53;2.10;;;33.80;41.00;;;;;;5027573;28;20033;-87
2021/06/17 11:14:41;;;;;;;3.00;2.47;;;34.00;40.90;;;;;;5043565;28;20043;-86
2021/06/17 11:17:30;;;;;;;6.47;3.70;;;34.20;41.00;;;;;;5026103;28;20033;-87
2021/06/17 11:19:56;;;;;;;5.20;3.30;;;34.10;40.80;;;;;;5017500;28;20060;-87
2021/06/17 11:22:41;;;;;;;5.55;3.40;;;34.00;40.80;;;;;;5028160;28;20391;-87
2021/06/17 11:25:16;;;;;;;4.60;3.50;;;33.90;41.00;;;;;;5026037;28;20518;-87
2021/06/17 11:28:11;;;;;;;5.70;3.30;;;33.90;41.20;;;;;;5044942;28;20037;-87
2021/06/17 11:30:41;;;;;;;5.28;3.42;;;33.90;41.20;;;;;;5027921;28;20063;-88
2021/06/17 11:33:16;;;;;;;6.80;3.60;;;33.90;41.50;;;;;;5049292;28;20032;-87
2021/06/17 11:35:43;;;;;;;5.20;3.30;;;33.90;41.40;;;;;;5026844;28;20032;-87
2021/06/17 11:38:09;;;;;;;3.08;2.60;;;34.00;41.50;;;;;;5043685;28;20037;-87
2021/06/17 11:40:35;;;;;;;4.60;3.53;;;34.20;41.50;;;;;;5047253;28;20044;-86
2021/06/17 11:43:01;;;;;;;5.95;3.00;;;34.40;40.80;;;;;;5024783;28;20025;-86
2021/06/17 11:45:33;;;;;;;4.35;3.55;;;34.60;40.50;;;;;;5041956;28;20501;-86
2021/06/17 11:48:01;;;;;;;4.25;2.80;;;34.70;40.00;;;;;;5045732;28;20021;-87
2021/06/17 11:50:27;;;;;;;3.55;3.10;;;34.80;40.10;;;;;;5026753;28;20021;-87
2021/06/17 11:52:53;;;;;;;3.35;2.88;;;35.00;40.00;;;;;;5025683;28;20023;-87
2021/06/17 11:55:20;;;;;;;2.58;2.38;;;35.10;39.50;;;;;;5027897;28;20120;-87
2021/06/17 11:57:47;;;;;;;4.25;2.60;;;35.20;39.10;;;;;;5025974;28;20112;-87
2021/06/17 12:00:31;;;;;;;5.35;3.33;;;35.40;38.60;;;;;;5028087;28;20041;-88
2021/06/17 12:02:57;;;;;;;5.35;3.13;;;35.50;37.70;;;;;;5047449;28;20121;-89
2021/06/17 12:05:23;;;;;;;4.45;3.55;;;35.40;37.70;;;;;;5027152;28;20127;-87
2021/06/17 12:07:49;;;;;;;4.25;3.22;;;35.40;37.50;;;;;;5027372;28;20017;-88
2021/06/17 12:10:21;;;;;;;5.45;3.00;;;35.40;37.70;;;;;;5045123;28;20468;-88
2021/06/17 12:12:51;;;;;;;;;;;35.60;37.60;;;;;;5030370;28;20141;-87
2021/06/17 12:15:30;;;;;;;5.15;2.83;;;35.80;37.50;;;;;;5044116;28;19995;-90
2021/06/17 12:18:10;;;;;;;3.08;2.45;;;35.70;37.40;;;;;;5045039;28;20021;-90
2021/06/17 12:20:44;;;;;;;5.35;3.00;;;35.70;37.70;;;;;;5029566;28;20084;-89
2021/06/17 12:23:11;;;;;;;3.72;2.90;;;35.80;37.60;;;;;;5042233;28;20031;-89
2021/06/17 12:25:40;;;;;;;4.53;2.55;;;35.60;36.30;;;;;;5027457;28;20131;-89
2021/06/17 12:28:07;;;;;;;4.65;2.50;;;35.50;36.30;;;;;;5027393;28;20028;-88
2021/06/17 12:30:38;;;;;;;2.85;2.22;;;35.50;35.90;;;;;;5029367;28;20183;-88
2021/06/17 12:33:22;;;;;;;3.97;2.45;;;35.50;35.40;;;;;;5023397;28;20104;-88
2021/06/17 12:35:58;;;;;;;2.20;1.80;;;35.40;35.40;;;;;;5023139;28;20368;-89
2021/06/17 12:38:24;;;;;;;3.63;2.20;;;35.70;35.90;;;;;;5026463;28;20053;-88
2021/06/17 12:40:49;;;;;;;2.90;2.13;;;35.80;35.90;;;;;;5027775;28;20095;-88
2021/06/17 12:43:23;;;;;;;3.13;2.58;;;36.00;35.50;;;;;;5025494;28;20518;-88
2021/06/17 12:46:04;;;;;;;6.75;2.60;;;36.00;34.80;;;;;;5023126;28;20116;-88
2021/06/17 12:54:32;;;;;;;2.90;1.60;;;36.10;34.90;;;;;;5044659;28;20086;-88
2021/06/17 12:57:01;;;;;;;3.95;1.67;;;36.30;34.60;;;;;;5027440;28;20094;-89
2021/06/17 12:59:48;;;;;;;4.25;1.73;;;36.40;34.40;;;;;;5028006;28;20498;-89
2021/06/17 13:02:37;;;;;;;3.55;1.50;;;36.40;34.20;;;;;;5024909;28;20040;-89
2021/06/17 13:05:04;;;;;;;3.00;1.60;;;36.40;34.40;;;;;;5026787;28;20033;-89
2021/06/17 13:07:30;;;;;;;4.18;2.00;;;36.40;34.20;;;;;;5028774;28;20036;-88
2021/06/17 13:10:17;;;;;;;3.65;1.80;;;36.40;34.00;;;;;;5027547;28;20045;-88
2021/06/17 13:12:43;;;;;;;3.15;1.80;;;36.40;34.10;;;;;;5027078;28;20410;-89